createdAt,value
2024-03-15T00:00:54.549Z,12.62
2024-03-15T00:02:59.745Z,12.65
2024-03-15T00:05:11.164Z,12.69
2024-03-15T00:07:16.856Z,12.72
2024-03-15T00:09:22.556Z,12.74
2024-03-15T00:11:27.720Z,12.80
2024-03-15T00:13:32.914Z,12.78
2024-03-15T00:15:38.675Z,12.78
2024-03-15T00:17:43.822Z,12.78
2024-03-15T00:19:48.850Z,12.84
2024-03-15T00:21:59.549Z,12.82
2024-03-15T00:24:05.716Z,12.82
2024-03-15T00:26:11.025Z,12.80
2024-03-15T00:28:16.322Z,12.82
2024-03-15T00:30:24.125Z,12.78
2024-03-15T00:32:29.722Z,12.80
2024-03-15T00:34:34.783Z,12.79
2024-03-15T00:36:40.043Z,12.76
2024-03-15T00:38:47.695Z,12.87
2024-03-15T00:40:54.699Z,12.83
2024-03-15T00:43:00.267Z,12.82
2024-03-15T00:45:08.138Z,12.83
2024-03-15T00:47:10.968Z,12.86
2024-03-15T00:49:15.875Z,12.90
2024-03-15T00:51:26.777Z,12.90
2024-03-15T00:53:32.668Z,12.93
2024-03-15T00:55:40.236Z,13.01
2024-03-15T00:57:45.136Z,13.03
2024-03-15T00:59:50.048Z,13.04
2024-03-15T01:01:55.062Z,13.02
2024-03-15T01:04:00.074Z,13.03
2024-03-15T01:06:05.161Z,13.03
2024-03-15T01:08:10.556Z,12.99
2024-03-15T01:10:15.660Z,13.01
2024-03-15T01:12:25.939Z,12.96
2024-03-15T01:14:31.677Z,13.00
2024-03-15T01:16:37.518Z,12.91
2024-03-15T01:18:40.208Z,12.89
2024-03-15T01:20:44.945Z,12.88
2024-03-15T01:22:50.094Z,12.81
2024-03-15T01:24:55.038Z,12.81
2024-03-15T01:27:01.031Z,12.84
2024-03-15T01:29:09.671Z,12.84
2024-03-15T01:31:18.108Z,12.76
2024-03-15T01:33:24.721Z,12.73
2024-03-15T01:35:33.990Z,12.65
2024-03-15T01:37:42.505Z,12.59
2024-03-15T01:39:49.331Z,12.53
2024-03-15T01:41:52.227Z,12.50
2024-03-15T01:44:01.272Z,12.44
2024-03-15T01:46:10.149Z,12.42
2024-03-15T01:48:15.948Z,12.41
2024-03-15T01:50:18.749Z,12.36
2024-03-15T01:52:26.016Z,12.33
2024-03-15T01:54:31.175Z,12.29
2024-03-15T01:56:36.117Z,12.25
2024-03-15T01:58:38.593Z,12.25
2024-03-15T02:00:43.919Z,12.12
2024-03-15T02:02:54.054Z,12.08
2024-03-15T02:04:59.058Z,12.10
2024-03-15T02:07:04.026Z,12.05
2024-03-15T02:09:09.254Z,11.99
2024-03-15T02:11:15.154Z,11.99
2024-03-15T02:13:20.179Z,11.91
2024-03-15T02:15:25.211Z,11.93
2024-03-15T02:17:30.808Z,11.92
2024-03-15T02:19:35.697Z,11.93
2024-03-15T02:21:44.788Z,11.91
2024-03-15T02:23:49.791Z,11.88
2024-03-15T02:25:54.848Z,11.88
2024-03-15T02:27:59.829Z,11.84
2024-03-15T02:30:07.319Z,11.86
2024-03-15T02:32:13.402Z,11.86
2024-03-15T02:34:15.831Z,11.85
2024-03-15T02:36:25.692Z,11.91
2024-03-15T02:38:35.248Z,11.90
2024-03-15T02:40:40.089Z,11.88
2024-03-15T02:42:47.872Z,11.85
2024-03-15T02:44:53.345Z,11.85
2024-03-15T02:46:58.264Z,11.83
2024-03-15T02:49:04.924Z,11.83
2024-03-15T02:51:10.010Z,11.86
2024-03-15T02:53:15.754Z,11.89
2024-03-15T02:55:23.639Z,11.88
2024-03-15T02:57:28.634Z,11.93
2024-03-15T02:59:36.044Z,11.92
2024-03-15T03:01:41.077Z,11.92
2024-03-15T03:03:46.500Z,11.96
2024-03-15T03:05:49.046Z,11.94
2024-03-15T03:07:53.936Z,11.88
2024-03-15T03:09:59.092Z,11.88
2024-03-15T03:12:08.662Z,11.92
2024-03-15T03:14:14.189Z,11.93
2024-03-15T03:16:24.428Z,11.92
2024-03-15T03:18:26.907Z,11.97
2024-03-15T03:20:34.464Z,11.93
2024-03-15T03:22:40.704Z,11.93
2024-03-15T03:24:45.818Z,11.99
2024-03-15T03:26:51.586Z,12.04
2024-03-15T03:29:02.194Z,12.02
2024-03-15T03:31:06.613Z,12.02
2024-03-15T03:33:11.737Z,11.97
2024-03-15T03:35:17.084Z,11.97
2024-03-15T03:37:24.786Z,12.00
2024-03-15T03:39:29.892Z,11.93
2024-03-15T03:41:35.063Z,11.98
2024-03-15T03:43:40.548Z,11.96
2024-03-15T03:45:48.650Z,11.90
2024-03-15T03:47:52.075Z,11.90
2024-03-15T03:49:57.134Z,11.88
2024-03-15T03:51:59.522Z,11.91
2024-03-15T03:54:05.001Z,11.92
2024-03-15T03:56:09.920Z,11.91
2024-03-15T03:58:16.781Z,11.92
2024-03-15T04:00:22.702Z,11.96
2024-03-15T04:02:32.776Z,11.97
2024-03-15T04:04:37.775Z,11.96
2024-03-15T04:06:40.343Z,11.98
2024-03-15T04:08:45.363Z,11.98
2024-03-15T04:10:50.651Z,11.94
2024-03-15T04:12:56.678Z,11.93
2024-03-15T04:15:08.219Z,11.92
2024-03-15T04:17:21.667Z,11.95
2024-03-15T04:19:32.558Z,11.94
2024-03-15T04:21:37.416Z,11.91
2024-03-15T04:23:43.959Z,11.89
2024-03-15T04:25:50.369Z,11.85
2024-03-15T04:27:56.036Z,11.82
2024-03-15T04:30:08.806Z,11.78
2024-03-15T04:32:14.128Z,11.70
2024-03-15T04:34:19.381Z,11.72
2024-03-15T04:36:29.546Z,11.60
2024-03-15T04:38:34.717Z,11.59
2024-03-15T04:40:40.082Z,11.53
2024-03-15T04:42:42.808Z,11.52
2024-03-15T04:44:49.241Z,11.45
2024-03-15T04:46:52.278Z,11.45
2024-03-15T04:48:57.858Z,11.50
2024-03-15T04:51:01.850Z,11.38
2024-03-15T04:53:12.217Z,11.43
2024-03-15T04:55:20.304Z,11.38
2024-03-15T04:57:27.199Z,11.39
2024-03-15T04:59:29.747Z,11.38
2024-03-15T05:01:34.837Z,11.42
2024-03-15T05:03:39.856Z,11.43
2024-03-15T05:05:42.507Z,11.35
2024-03-15T05:07:48.523Z,11.36
2024-03-15T05:09:56.738Z,11.37
2024-03-15T05:12:02.291Z,11.33
2024-03-15T05:14:07.266Z,11.35
2024-03-15T05:16:15.759Z,11.31
2024-03-15T05:18:22.216Z,11.30
2024-03-15T05:20:27.246Z,11.33
2024-03-15T05:22:29.814Z,11.35
2024-03-15T05:24:35.071Z,11.34
2024-03-15T05:26:43.029Z,11.37
2024-03-15T05:28:49.761Z,11.38
2024-03-15T05:30:54.985Z,11.39
2024-03-15T05:32:57.589Z,11.35
2024-03-15T05:35:02.916Z,11.31
2024-03-15T05:37:10.976Z,11.31
2024-03-15T05:39:16.630Z,11.32
2024-03-15T05:41:22.566Z,11.32
2024-03-15T05:43:30.132Z,11.31
2024-03-15T05:45:32.711Z,11.30
2024-03-15T05:47:37.660Z,11.33
2024-03-15T05:49:43.170Z,11.36
2024-03-15T05:51:48.222Z,11.38
2024-03-15T05:53:51.004Z,11.35
2024-03-15T05:55:56.339Z,11.36
2024-03-15T05:58:01.414Z,11.36
2024-03-15T06:00:17.354Z,11.38
2024-03-15T06:02:24.409Z,11.42
2024-03-15T06:04:29.627Z,11.44
2024-03-15T06:06:35.543Z,11.41
2024-03-15T06:08:40.610Z,11.41
2024-03-15T06:10:43.063Z,11.35
2024-03-15T06:12:49.125Z,11.36
2024-03-15T06:14:52.282Z,11.41
2024-03-15T06:16:59.909Z,11.42
2024-03-15T06:19:02.765Z,11.43
2024-03-15T06:21:10.314Z,11.45
2024-03-15T06:23:16.466Z,11.46
2024-03-15T06:25:21.428Z,11.49
2024-03-15T06:27:30.142Z,11.51
2024-03-15T06:29:36.075Z,11.52
2024-03-15T06:31:41.596Z,11.50
2024-03-15T06:33:50.528Z,11.52
2024-03-15T06:35:54.222Z,11.54
2024-03-15T06:38:09.163Z,11.56
2024-03-15T06:40:20.374Z,11.58
2024-03-15T06:42:26.043Z,11.60
2024-03-15T06:44:47.126Z,11.57
2024-03-15T06:47:17.143Z,11.57
2024-03-15T06:49:26.440Z,11.63
2024-03-15T06:51:44.131Z,11.64
2024-03-15T06:53:49.235Z,11.67
2024-03-15T06:55:55.330Z,11.68
2024-03-15T06:58:08.842Z,11.70
2024-03-15T07:00:18.219Z,11.78
2024-03-15T07:02:25.528Z,11.76
2024-03-15T07:04:33.856Z,11.79
2024-03-15T07:06:38.999Z,11.81
2024-03-15T07:08:45.885Z,11.84
2024-03-15T07:10:52.522Z,11.86
2024-03-15T07:12:57.521Z,11.91
2024-03-15T07:15:02.543Z,11.89
2024-03-15T07:17:10.550Z,11.84
2024-03-15T07:19:17.123Z,11.81
2024-03-15T07:21:24.951Z,11.81
2024-03-15T07:23:32.949Z,11.83
2024-03-15T07:25:36.458Z,11.89
2024-03-15T07:27:43.387Z,12.01
2024-03-15T07:29:48.530Z,12.11
2024-03-15T07:31:51.082Z,12.07
2024-03-15T07:33:56.229Z,12.04
2024-03-15T07:36:06.444Z,12.06
2024-03-15T07:38:14.356Z,12.17
2024-03-15T07:40:20.290Z,12.24
2024-03-15T07:42:25.865Z,12.18
2024-03-15T07:44:31.491Z,12.18
2024-03-15T07:46:39.484Z,12.15
2024-03-15T07:48:44.878Z,12.17
2024-03-15T07:50:50.285Z,12.17
2024-03-15T07:52:55.321Z,12.15
2024-03-15T07:55:07.536Z,12.14
2024-03-15T07:57:15.339Z,12.10
2024-03-15T07:59:24.003Z,12.08
2024-03-15T08:01:26.608Z,12.16
2024-03-15T08:03:34.100Z,12.14
2024-03-15T08:05:39.908Z,12.25
2024-03-15T08:07:42.774Z,12.26
2024-03-15T08:09:47.721Z,12.30
2024-03-15T08:11:55.892Z,12.38
2024-03-15T08:14:00.960Z,12.39
2024-03-15T08:16:20.403Z,12.49
2024-03-15T08:18:26.116Z,12.43
2024-03-15T08:20:31.244Z,12.59
2024-03-15T08:22:38.522Z,12.60
2024-03-15T08:24:43.945Z,13.02
2024-03-15T08:26:49.018Z,13.23
2024-03-15T08:28:57.511Z,13.05
2024-03-15T08:31:02.648Z,13.06
2024-03-15T08:33:09.560Z,12.93
2024-03-15T08:35:16.076Z,13.00
2024-03-15T08:37:24.214Z,12.97
2024-03-15T08:39:31.368Z,13.23
2024-03-15T08:41:38.296Z,13.22
2024-03-15T08:43:43.425Z,13.56
2024-03-15T08:45:51.718Z,13.59
2024-03-15T08:48:01.318Z,13.34
2024-03-15T08:50:13.256Z,13.33
2024-03-15T08:52:18.326Z,13.07
2024-03-15T08:54:23.745Z,13.06
2024-03-15T08:56:28.832Z,13.20
2024-03-15T08:58:31.208Z,13.28
2024-03-15T09:00:40.018Z,13.04
2024-03-15T09:02:48.034Z,13.05
2024-03-15T09:04:55.465Z,12.99
2024-03-15T09:07:00.646Z,13.04
2024-03-15T09:09:10.502Z,13.07
2024-03-15T09:11:15.555Z,13.15
2024-03-15T09:13:22.742Z,13.02
2024-03-15T09:15:28.546Z,12.98
2024-03-15T09:17:33.957Z,12.98
2024-03-15T09:19:41.921Z,12.97
2024-03-15T09:21:51.587Z,12.93
2024-03-15T09:23:56.789Z,12.96
2024-03-15T09:26:04.326Z,13.07
2024-03-15T09:28:13.854Z,13.20
2024-03-15T09:30:28.208Z,13.28
2024-03-15T09:32:34.158Z,13.17
2024-03-15T09:34:45.312Z,13.21
2024-03-15T09:36:52.800Z,13.24
2024-03-15T09:38:58.242Z,13.14
2024-03-15T09:41:00.867Z,13.01
2024-03-15T09:43:06.178Z,12.99
2024-03-15T09:45:12.358Z,13.01
2024-03-15T09:47:18.703Z,13.10
2024-03-15T09:49:24.945Z,13.07
2024-03-15T09:51:33.396Z,13.04
2024-03-15T09:53:38.480Z,13.00
2024-03-15T09:55:44.208Z,12.95
2024-03-15T09:57:50.747Z,13.00
2024-03-15T09:59:56.584Z,13.09
2024-03-15T10:02:02.294Z,13.22
2024-03-15T10:04:13.218Z,13.32
2024-03-15T10:06:21.613Z,13.35
2024-03-15T10:08:32.720Z,13.32
2024-03-15T10:10:35.572Z,13.31
2024-03-15T10:12:41.738Z,13.31
2024-03-15T10:14:44.513Z,13.38
2024-03-15T10:16:49.669Z,13.44
2024-03-15T10:18:54.794Z,13.58
2024-03-15T10:20:58.086Z,13.80
2024-03-15T10:23:03.632Z,13.82
2024-03-15T10:25:21.395Z,13.81
2024-03-15T10:27:27.830Z,13.63
2024-03-15T10:29:32.920Z,13.69
2024-03-15T10:31:36.096Z,13.67
2024-03-15T10:33:41.242Z,13.67
2024-03-15T10:35:50.068Z,13.70
2024-03-15T10:37:55.931Z,13.82
2024-03-15T10:40:01.249Z,13.76
2024-03-15T10:42:17.876Z,13.76
2024-03-15T10:44:23.844Z,13.71
2024-03-15T10:46:29.157Z,13.70
2024-03-15T10:48:34.748Z,13.54
2024-03-15T10:50:43.862Z,13.49
2024-03-15T10:52:52.968Z,13.38
2024-03-15T10:54:59.336Z,13.50
2024-03-15T10:57:07.309Z,13.55
2024-03-15T10:59:12.728Z,13.56
2024-03-15T11:01:20.158Z,13.68
2024-03-15T11:03:32.111Z,13.78
2024-03-15T11:05:37.778Z,13.99
2024-03-15T11:07:43.211Z,14.05
2024-03-15T11:09:50.301Z,14.20
2024-03-15T11:12:06.145Z,14.64
2024-03-15T11:14:28.795Z,14.87
2024-03-15T11:16:35.690Z,14.99
2024-03-15T11:18:41.425Z,14.89
2024-03-15T11:20:48.279Z,14.70
2024-03-15T11:22:58.340Z,14.48
2024-03-15T11:25:04.586Z,14.35
2024-03-15T11:27:07.034Z,14.45
2024-03-15T11:29:22.423Z,14.42
2024-03-15T11:31:30.079Z,14.41
2024-03-15T11:33:36.636Z,14.24
2024-03-15T11:35:45.351Z,14.30
2024-03-15T11:37:57.551Z,14.42
2024-03-15T11:40:04.642Z,14.88
2024-03-15T11:42:08.954Z,15.14
2024-03-15T11:44:14.077Z,15.49
2024-03-15T11:46:23.791Z,15.61
2024-03-15T11:48:28.945Z,15.57
2024-03-15T11:50:34.023Z,15.27
2024-03-15T11:52:36.581Z,14.99
2024-03-15T11:54:41.819Z,14.70
2024-03-15T11:56:47.648Z,14.45
2024-03-15T11:58:53.351Z,14.62
2024-03-15T12:00:59.976Z,14.59
2024-03-15T12:03:12.029Z,14.70
2024-03-15T12:05:17.996Z,14.56
2024-03-15T12:07:24.700Z,14.41
2024-03-15T12:09:29.678Z,14.45
2024-03-15T12:11:41.344Z,14.33
2024-03-15T12:13:55.249Z,14.21
2024-03-15T12:16:02.631Z,14.34
2024-03-15T12:18:19.264Z,14.30
2024-03-15T12:20:22.701Z,14.27
2024-03-15T12:22:30.841Z,14.25
2024-03-15T12:24:35.920Z,14.37
2024-03-15T12:26:41.577Z,14.45
2024-03-15T12:28:48.437Z,14.47
2024-03-15T12:30:56.091Z,14.24
2024-03-15T12:33:01.195Z,14.26
2024-03-15T12:35:09.993Z,14.08
2024-03-15T12:37:14.961Z,14.24
2024-03-15T12:39:20.400Z,14.29
2024-03-15T12:41:25.356Z,14.55
2024-03-15T12:43:30.547Z,15.00
2024-03-15T12:45:35.497Z,14.88
2024-03-15T12:47:42.690Z,15.06
2024-03-15T12:49:47.647Z,15.01
2024-03-15T12:51:55.449Z,14.89
2024-03-15T12:54:00.592Z,15.21
2024-03-15T12:56:06.168Z,14.99
2024-03-15T12:58:11.951Z,15.12
2024-03-15T13:00:19.056Z,14.93
2024-03-15T13:02:24.505Z,14.86
2024-03-15T13:04:29.747Z,15.14
2024-03-15T13:06:35.198Z,14.88
2024-03-15T13:08:42.882Z,15.19
2024-03-15T13:10:49.430Z,15.21
2024-03-15T13:12:53.830Z,15.12
2024-03-15T13:15:00.279Z,15.22
2024-03-15T13:17:08.673Z,15.36
2024-03-15T13:19:15.055Z,15.28
2024-03-15T13:21:20.743Z,15.12
2024-03-15T13:23:28.910Z,14.92
2024-03-15T13:25:38.319Z,15.01
2024-03-15T13:27:43.977Z,15.05
2024-03-15T13:29:48.996Z,15.11
2024-03-15T13:31:54.242Z,14.89
2024-03-15T13:33:59.920Z,15.03
2024-03-15T13:36:05.076Z,14.91
2024-03-15T13:38:11.777Z,14.99
2024-03-15T13:40:21.527Z,15.13
2024-03-15T13:42:43.028Z,14.76
2024-03-15T13:44:48.374Z,14.86
2024-03-15T13:46:53.602Z,14.97
2024-03-15T13:49:06.499Z,14.71
2024-03-15T13:51:14.761Z,14.69
2024-03-15T13:53:20.116Z,14.78
2024-03-15T13:55:24.544Z,14.91
2024-03-15T13:57:29.719Z,14.80
2024-03-15T13:59:37.404Z,14.73
2024-03-15T14:01:46.843Z,14.91
2024-03-15T14:03:54.407Z,14.81
2024-03-15T14:05:58.258Z,14.75
2024-03-15T14:08:03.584Z,14.81
2024-03-15T14:10:08.856Z,14.77
2024-03-15T14:12:14.284Z,14.66
2024-03-15T14:14:19.842Z,14.88
2024-03-15T14:16:27.910Z,14.95
2024-03-15T14:18:33.881Z,14.91
2024-03-15T14:20:42.985Z,14.96
2024-03-15T14:22:48.701Z,14.76
2024-03-15T14:24:53.418Z,14.66
2024-03-15T14:27:05.418Z,14.47
2024-03-15T14:29:11.416Z,14.32
2024-03-15T14:31:17.045Z,14.04
2024-03-15T14:33:25.036Z,14.19
2024-03-15T14:35:30.456Z,14.38
2024-03-15T14:37:32.971Z,14.61
2024-03-15T14:39:40.490Z,14.67
2024-03-15T14:41:45.551Z,14.85
2024-03-15T14:43:50.595Z,14.64
2024-03-15T14:45:57.296Z,14.58
2024-03-15T14:48:07.485Z,14.79
2024-03-15T14:50:26.465Z,14.79
2024-03-15T14:52:29.231Z,14.94
2024-03-15T14:54:34.213Z,15.06
2024-03-15T14:56:39.782Z,15.01
2024-03-15T14:58:44.959Z,14.96
2024-03-15T15:00:51.164Z,15.06
2024-03-15T15:02:57.066Z,14.81
2024-03-15T15:05:10.933Z,15.01
2024-03-15T15:07:18.821Z,15.00
2024-03-15T15:09:26.007Z,15.04
2024-03-15T15:11:31.471Z,14.98
2024-03-15T15:13:37.373Z,14.97
2024-03-15T15:15:43.412Z,15.20
2024-03-15T15:17:47.020Z,15.13
2024-03-15T15:19:52.352Z,14.88
2024-03-15T15:21:54.647Z,14.81
2024-03-15T15:24:02.665Z,14.70
2024-03-15T15:26:10.671Z,14.81
2024-03-15T15:28:16.102Z,14.84
2024-03-15T15:30:26.020Z,14.95
2024-03-15T15:32:31.078Z,14.83
2024-03-15T15:34:40.104Z,14.62
2024-03-15T15:36:45.365Z,14.43
2024-03-15T15:38:50.992Z,14.54
2024-03-15T15:40:58.962Z,14.47
2024-03-15T15:43:07.360Z,14.41
2024-03-15T15:45:14.560Z,14.33
2024-03-15T15:47:17.183Z,14.47
2024-03-15T15:49:25.390Z,14.54
2024-03-15T15:51:31.005Z,14.43
2024-03-15T15:53:35.963Z,14.30
2024-03-15T15:55:42.652Z,14.32
2024-03-15T15:57:51.557Z,14.32
2024-03-15T15:59:55.930Z,14.31
2024-03-15T16:02:03.774Z,14.29
2024-03-15T16:04:08.955Z,14.27
2024-03-15T16:06:14.130Z,14.11
2024-03-15T16:08:19.520Z,14.10
2024-03-15T16:10:25.239Z,14.10
2024-03-15T16:12:30.576Z,14.10
2024-03-15T16:14:38.312Z,13.91
2024-03-15T16:16:43.850Z,13.95
2024-03-15T16:18:48.949Z,13.83
2024-03-15T16:20:51.501Z,13.73
2024-03-15T16:22:59.698Z,13.71
2024-03-15T16:25:07.345Z,13.70
2024-03-15T16:27:13.052Z,13.65
2024-03-15T16:29:18.261Z,13.56
2024-03-15T16:31:29.051Z,13.39
2024-03-15T16:33:34.593Z,13.39
2024-03-15T16:35:39.802Z,13.30
2024-03-15T16:37:42.768Z,13.16
2024-03-15T16:39:48.306Z,13.13
2024-03-15T16:41:54.511Z,13.13
2024-03-15T16:44:00.389Z,13.06
2024-03-15T16:46:29.819Z,12.95
2024-03-15T16:48:39.381Z,12.97
2024-03-15T16:50:42.032Z,12.82
2024-03-15T16:52:48.920Z,12.88
2024-03-15T16:54:53.812Z,12.88
2024-03-15T16:56:59.038Z,12.83
2024-03-15T16:59:05.798Z,12.79
2024-03-15T17:01:11.163Z,12.84
2024-03-15T17:03:19.131Z,12.78
2024-03-15T17:05:24.491Z,12.71
2024-03-15T17:07:29.645Z,12.62
2024-03-15T17:09:34.706Z,12.59
2024-03-15T17:11:40.002Z,12.54
2024-03-15T17:13:44.925Z,12.54
2024-03-15T17:15:54.099Z,12.52
2024-03-15T17:18:00.973Z,12.46
2024-03-15T17:20:11.372Z,12.44
2024-03-15T17:22:16.737Z,12.41
2024-03-15T17:24:22.450Z,12.39
2024-03-15T17:26:28.309Z,12.31
2024-03-15T17:28:33.353Z,12.29
2024-03-15T17:30:38.687Z,12.20
2024-03-15T17:32:45.320Z,12.22
2024-03-15T17:34:50.559Z,12.16
2024-03-15T17:36:55.851Z,12.13
2024-03-15T17:39:01.063Z,12.06
2024-03-15T17:41:08.600Z,12.08
2024-03-15T17:43:13.673Z,12.03
2024-03-15T17:45:20.825Z,11.97
2024-03-15T17:47:29.212Z,11.95
2024-03-15T17:49:34.357Z,11.89
2024-03-15T17:51:39.561Z,11.86
2024-03-15T17:53:47.765Z,11.81
2024-03-15T17:55:54.158Z,11.77
2024-03-15T17:57:59.720Z,11.79
2024-03-15T18:00:14.088Z,11.80
2024-03-15T18:02:19.775Z,11.68
2024-03-15T18:04:24.797Z,11.75
2024-03-15T18:06:30.509Z,11.69
2024-03-15T18:08:35.706Z,11.64
2024-03-15T18:10:43.670Z,11.66
2024-03-15T18:12:49.071Z,11.63
2024-03-15T18:14:51.710Z,11.54
2024-03-15T18:16:57.350Z,11.47
2024-03-15T18:19:04.356Z,11.49
2024-03-15T18:21:11.299Z,11.51
2024-03-15T18:23:18.597Z,11.48
2024-03-15T18:25:24.767Z,11.46
2024-03-15T18:27:29.851Z,11.49
2024-03-15T18:29:34.922Z,11.52
2024-03-15T18:31:40.295Z,11.46
2024-03-15T18:33:45.834Z,11.45
2024-03-15T18:35:51.146Z,11.45
2024-03-15T18:37:59.263Z,11.43
2024-03-15T18:40:04.504Z,11.38
2024-03-15T18:42:12.085Z,11.35
2024-03-15T18:44:17.307Z,11.32
2024-03-15T18:46:22.752Z,11.28
2024-03-15T18:48:30.383Z,11.26
2024-03-15T18:50:36.916Z,11.26
2024-03-15T18:52:40.096Z,11.27
2024-03-15T18:54:50.046Z,11.23
2024-03-15T18:56:56.046Z,11.28
2024-03-15T18:59:01.281Z,11.30
2024-03-15T19:01:11.400Z,11.28
2024-03-15T19:03:16.861Z,11.23
2024-03-15T19:05:19.608Z,11.24
2024-03-15T19:07:25.038Z,11.22
2024-03-15T19:09:30.122Z,11.25
2024-03-15T19:11:35.310Z,11.25
2024-03-15T19:13:40.406Z,11.21
2024-03-15T19:15:45.556Z,11.19
2024-03-15T19:17:54.429Z,11.19
2024-03-15T19:20:00.166Z,11.20
2024-03-15T19:22:05.327Z,11.21
2024-03-15T19:24:10.616Z,11.23
2024-03-15T19:26:18.945Z,11.22
2024-03-15T19:28:27.564Z,11.20
2024-03-15T19:30:33.954Z,11.19
2024-03-15T19:32:39.225Z,11.18
2024-03-15T19:34:47.669Z,11.17
2024-03-15T19:36:54.467Z,11.15
2024-03-15T19:38:59.681Z,11.13
2024-03-15T19:41:12.163Z,11.08
2024-03-15T19:43:22.269Z,11.06
2024-03-15T19:45:28.322Z,11.07
2024-03-15T19:47:33.282Z,11.05
2024-03-15T19:49:39.022Z,11.04
2024-03-15T19:51:46.689Z,11.06
2024-03-15T19:53:51.782Z,11.03
2024-03-15T19:55:55.593Z,11.04
2024-03-15T19:58:01.763Z,11.01
2024-03-15T20:00:12.176Z,10.96
2024-03-15T20:02:20.218Z,10.86
2024-03-15T20:04:27.312Z,10.88
2024-03-15T20:06:32.946Z,10.82
2024-03-15T20:08:40.963Z,10.83
2024-03-15T20:10:46.105Z,10.83
2024-03-15T20:12:51.991Z,10.85
2024-03-15T20:14:58.864Z,10.80
2024-03-15T20:17:01.204Z,10.81
2024-03-15T20:19:22.721Z,10.83
2024-03-15T20:21:28.163Z,10.82
2024-03-15T20:23:33.114Z,10.79
2024-03-15T20:25:41.142Z,10.78
2024-03-15T20:27:46.328Z,10.74
2024-03-15T20:29:54.609Z,10.72
2024-03-15T20:32:02.790Z,10.72
2024-03-15T20:34:11.355Z,10.70
2024-03-15T20:36:16.619Z,10.70
2024-03-15T20:38:23.294Z,10.70
2024-03-15T20:40:28.964Z,10.66
2024-03-15T20:42:39.163Z,10.59
2024-03-15T20:44:44.777Z,10.56
2024-03-15T20:46:50.065Z,10.53
2024-03-15T20:48:58.179Z,10.51
2024-03-15T20:51:05.733Z,10.51
2024-03-15T20:53:15.742Z,10.47
2024-03-15T20:55:24.880Z,10.51
2024-03-15T20:57:48.926Z,10.51
2024-03-15T20:59:59.280Z,10.46
2024-03-15T21:04:34.746Z,10.43
2024-03-15T21:06:42.572Z,10.45
2024-03-15T21:08:54.140Z,10.43
2024-03-15T21:10:59.228Z,10.43
2024-03-15T21:13:04.952Z,10.45
2024-03-15T21:15:20.938Z,10.47
2024-03-15T21:17:26.652Z,10.52
2024-03-15T21:19:32.484Z,10.53
2024-03-15T21:21:39.407Z,10.52
2024-03-15T21:23:44.709Z,10.59
2024-03-15T21:25:54.438Z,10.59
2024-03-15T21:28:00.462Z,10.62
2024-03-15T21:30:07.475Z,10.63
2024-03-15T21:32:12.943Z,10.64
2024-03-15T21:34:21.095Z,10.65
2024-03-15T21:36:31.690Z,10.73
2024-03-15T21:38:36.836Z,10.70
2024-03-15T21:40:41.959Z,10.71
2024-03-15T21:42:49.024Z,10.71
2024-03-15T21:44:54.112Z,10.72
2024-03-15T21:46:56.439Z,10.70
2024-03-15T21:49:06.413Z,10.70
2024-03-15T21:51:15.528Z,10.76
2024-03-15T21:53:24.911Z,10.71
2024-03-15T21:55:29.861Z,10.70
2024-03-15T21:57:35.806Z,10.71
2024-03-15T21:59:45.358Z,10.71
2024-03-15T22:01:50.493Z,10.71
2024-03-15T22:03:59.030Z,10.69
2024-03-15T22:06:07.825Z,10.67
2024-03-15T22:08:15.596Z,10.68
2024-03-15T22:10:23.757Z,10.70
2024-03-15T22:12:28.748Z,10.73
2024-03-15T22:14:31.206Z,10.75
2024-03-15T22:16:37.107Z,10.71
2024-03-15T22:18:43.416Z,10.74
2024-03-15T22:20:53.463Z,10.73
2024-03-15T22:23:03.535Z,10.71
2024-03-15T22:25:19.612Z,10.67
2024-03-15T22:27:29.024Z,10.68
2024-03-15T22:29:34.200Z,10.66
2024-03-15T22:31:39.232Z,10.67
2024-03-15T22:33:44.500Z,10.63
2024-03-15T22:35:49.556Z,10.58
2024-03-15T22:37:51.862Z,10.63
2024-03-15T22:39:59.688Z,10.63
2024-03-15T22:42:04.953Z,10.58
2024-03-15T22:44:09.913Z,10.59
2024-03-15T22:46:16.710Z,10.55
2024-03-15T22:48:24.256Z,10.58
2024-03-15T22:50:29.097Z,10.56
2024-03-15T22:52:31.494Z,10.60
2024-03-15T22:54:39.193Z,10.61
2024-03-15T22:56:47.111Z,10.58
2024-03-15T22:58:53.372Z,10.57
2024-03-15T23:01:00.694Z,10.58
2024-03-15T23:03:07.868Z,10.55
2024-03-15T23:05:15.840Z,10.54
2024-03-15T23:07:23.675Z,10.55
2024-03-15T23:09:29.168Z,10.53
2024-03-15T23:11:35.090Z,10.54
2024-03-15T23:13:42.757Z,10.53
2024-03-15T23:15:48.571Z,10.50
2024-03-15T23:17:54.218Z,10.47
2024-03-15T23:19:59.269Z,10.47
2024-03-15T23:22:05.735Z,10.49
2024-03-15T23:24:12.323Z,10.47
2024-03-15T23:26:18.508Z,10.47
2024-03-15T23:28:26.997Z,10.46
2024-03-15T23:30:35.799Z,10.46
2024-03-15T23:32:41.161Z,10.42
2024-03-15T23:34:46.403Z,10.42
2024-03-15T23:36:54.048Z,10.40
2024-03-15T23:38:59.092Z,10.39
2024-03-15T23:41:05.280Z,10.47
2024-03-15T23:43:13.824Z,10.41
2024-03-15T23:45:18.912Z,10.41
2024-03-15T23:47:29.709Z,10.41
2024-03-15T23:49:34.683Z,10.40
2024-03-15T23:51:39.884Z,10.46
2024-03-15T23:53:44.899Z,10.43
2024-03-15T23:55:50.407Z,10.42
2024-03-15T23:57:55.461Z,10.44
